Time;durP1;ratioP1;P1;durP2;ratioP2;P2;SDS_P1;SDS_P2;PMS_P1;PMS_P2;Temp;Humidity;BMP_temperature;BMP_pressure;BME280_temperature;BME280_humidity;BME280_pressure;Samples;Min_cycle;Max_cycle;Signal;HPM_P1;HPM_P2
2021/12/17 00:04:37;;;;;;;83.30;21.55;;;;;;;;;;5144434;28;20051;-61
2021/12/17 00:07:10;;;;;;;70.32;19.20;;;;;;;;;;5144020;28;20072;-61
2021/12/17 00:09:37;;;;;;;94.20;20.65;;;;;;;;;;5145881;27;20035;-60
2021/12/17 00:12:04;;;;;;;94.47;20.37;;;;;;;;;;5147946;27;20047;-60
2021/12/17 00:14:36;;;;;;;101.10;21.20;;;;;;;;;;5148005;27;20099;-60
2021/12/17 00:17:05;;;;;;;92.95;21.55;;;;;;;;;;5145355;27;20099;-62
2021/12/17 00:49:22;;;;;;;61.28;12.27;;;;;;;;;;5127703;28;20075;-61
2021/12/17 00:54:28;;;;;;;38.08;9.95;;;;;;;;;;5147918;27;20043;-60
2021/12/17 00:56:55;;;;;;;39.47;10.20;;;;;;;;;;5147834;27;20053;-61
2021/12/17 00:59:22;;;;;;;36.28;9.93;;;;;;;;;;5148300;27;20122;-61
2021/12/17 01:01:49;;;;;;;34.47;10.07;;;;;;;;;;5147885;27;20159;-61
2021/12/17 01:04:15;;;;;;;38.70;9.68;;;;;;;;;;5147934;27;20118;-61
2021/12/17 01:06:42;;;;;;;56.08;10.80;;;;;;;;;;5147528;27;20131;-60
2021/12/17 01:09:09;;;;;;;42.03;9.60;;;;;;;;;;5148052;27;20122;-62
2021/12/17 01:11:36;;;;;;;30.02;9.27;;;;;;;;;;5147805;27;20039;-61
2021/12/17 01:14:03;;;;;;;54.75;10.57;;;;;;;;;;5147798;27;20047;-60
2021/12/17 01:16:29;;;;;;;54.73;11.00;;;;;;;;;;5147796;27;20054;-60
2021/12/17 01:19:11;;;;;;;45.10;9.35;;;;;;;;;;5147979;27;20422;-60
2021/12/17 01:21:54;;;;;;;53.53;10.32;;;;;;;;;;5147003;27;20039;-60
2021/12/17 01:24:38;;;;;;;43.13;9.88;;;;;;;;;;5147517;27;20039;-62
2021/12/17 01:35:21;;;;;;;26.25;8.13;;;;;;;;;;5126331;28;20065;-61
2021/12/17 01:43:06;;;;;;;17.90;6.68;;;;;;;;;;5142047;27;20046;-62
2021/12/17 01:45:37;;;;;;;17.80;6.10;;;;;;;;;;5147151;27;20575;-60
2021/12/17 01:48:08;;;;;;;21.52;7.07;;;;;;;;;;5128353;27;20071;-61
2021/12/17 02:01:29;;;;;;;13.43;6.13;;;;;;;;;;5146966;27;20126;-60
2021/12/17 02:03:56;;;;;;;19.63;5.90;;;;;;;;;;5146300;27;20134;-60
2021/12/17 02:06:23;;;;;;;11.15;5.35;;;;;;;;;;5146739;27;20053;-60
2021/12/17 02:08:53;;;;;;;22.02;7.45;;;;;;;;;;5146704;27;20092;-60
2021/12/17 02:32:27;;;;;;;14.07;6.22;;;;;;;;;;5145186;27;20049;-60
2021/12/17 02:35:21;;;;;;;16.33;6.28;;;;;;;;;;5146299;27;20505;-60
2021/12/17 02:37:49;;;;;;;15.45;6.47;;;;;;;;;;5145935;27;20061;-60
2021/12/17 02:45:46;;;;;;;15.38;6.88;;;;;;;;;;5082220;28;20504;-61
2021/12/17 02:48:20;;;;;;;11.25;6.53;;;;;;;;;;5081904;28;20044;-61
2021/12/17 02:50:48;;;;;;;14.77;7.22;;;;;;;;;;5081734;28;20083;-61
2021/12/17 02:53:15;;;;;;;15.93;7.35;;;;;;;;;;5082397;28;20037;-61
2021/12/17 02:55:43;;;;;;;18.23;8.18;;;;;;;;;;5082059;28;20048;-61
2021/12/17 02:58:09;;;;;;;;;;;;;;;;;;5082145;28;20169;-61
2021/12/17 03:00:36;;;;;;;16.77;7.07;;;;;;;;;;5081889;28;19920;-61
2021/12/17 03:03:03;;;;;;;16.48;8.30;;;;;;;;;;5081677;28;20079;-61
2021/12/17 03:05:29;;;;;;;13.02;6.70;;;;;;;;;;5081641;28;20045;-61
2021/12/17 03:07:56;;;;;;;15.60;6.70;;;;;;;;;;5065218;28;20114;-60
2021/12/17 03:10:22;;;;;;;15.40;7.47;;;;;;;;;;5081808;28;20118;-60
2021/12/17 03:13:07;;;;;;;16.20;7.43;;;;;;;;;;5081902;28;20083;-60
2021/12/17 03:23:40;;;;;;;16.55;7.68;;;;;;;;;;5125297;28;20058;-60
2021/12/17 03:26:14;;;;;;;11.25;7.32;;;;;;;;;;5124670;28;20044;-60
2021/12/17 03:28:41;;;;;;;13.75;6.80;;;;;;;;;;5143170;27;20068;-60
2021/12/17 03:31:07;;;;;;;14.43;7.50;;;;;;;;;;5145410;27;20054;-60
2021/12/17 03:33:34;;;;;;;12.57;6.32;;;;;;;;;;5145203;28;20046;-60
2021/12/17 03:36:00;;;;;;;12.80;6.47;;;;;;;;;;5145130;28;20046;-60
2021/12/17 03:38:27;;;;;;;14.85;6.40;;;;;;;;;;5145524;28;20055;-60
2021/12/17 03:41:04;;;;;;;10.10;5.90;;;;;;;;;;5145066;28;20054;-60
2021/12/17 03:43:32;;;;;;;15.13;7.30;;;;;;;;;;5145315;27;20481;-60
2021/12/17 03:45:58;;;;;;;14.27;6.78;;;;;;;;;;5149607;27;20148;-60
2021/12/17 03:48:24;;;;;;;14.93;6.55;;;;;;;;;;5148846;27;20094;-60
2021/12/17 03:50:51;;;;;;;14.30;6.35;;;;;;;;;;5148683;27;20051;-61
2021/12/17 03:53:17;;;;;;;16.33;7.07;;;;;;;;;;5131136;27;20043;-60
2021/12/17 03:55:43;;;;;;;17.50;7.20;;;;;;;;;;5149466;27;20285;-61
2021/12/17 03:58:09;;;;;;;17.70;7.07;;;;;;;;;;5148938;27;20043;-60
2021/12/17 04:00:35;;;;;;;12.57;5.82;;;;;;;;;;5149190;27;20070;-60
2021/12/17 04:03:02;;;;;;;13.13;6.20;;;;;;;;;;5149036;27;20054;-60
2021/12/17 04:05:29;;;;;;;12.98;6.25;;;;;;;;;;5148887;27;20050;-60
2021/12/17 04:07:55;;;;;;;13.65;6.57;;;;;;;;;;5149268;27;20077;-60
2021/12/17 04:10:23;;;;;;;16.83;7.43;;;;;;;;;;5130761;27;20054;-61
2021/12/17 04:15:15;;;;;;;16.30;6.63;;;;;;;;;;5148990;27;19951;-61
2021/12/17 04:17:46;;;;;;;17.17;7.45;;;;;;;;;;5148728;27;20428;-61
2021/12/17 04:20:12;;;;;;;12.95;6.68;;;;;;;;;;5147965;27;20039;-61
2021/12/17 04:22:38;;;;;;;14.55;7.25;;;;;;;;;;5149167;27;20051;-60
2021/12/17 04:25:05;;;;;;;19.65;8.02;;;;;;;;;;5148875;27;20084;-61
2021/12/17 04:27:31;;;;;;;16.42;7.03;;;;;;;;;;5148626;27;20054;-61
2021/12/17 04:29:57;;;;;;;15.63;7.05;;;;;;;;;;5148866;27;20069;-61
2021/12/17 04:32:24;;;;;;;17.15;7.25;;;;;;;;;;5148464;27;20043;-61
2021/12/17 04:34:50;;;;;;;18.10;8.20;;;;;;;;;;5148598;27;20054;-61
2021/12/17 04:37:16;;;;;;;21.98;8.80;;;;;;;;;;5148260;27;20043;-61
2021/12/17 04:39:43;;;;;;;21.45;10.10;;;;;;;;;;5148399;27;20043;-61
2021/12/17 04:42:17;;;;;;;21.75;9.65;;;;;;;;;;5148353;27;20082;-60
2021/12/17 04:44:50;;;;;;;21.90;9.18;;;;;;;;;;5148532;27;20064;-61
2021/12/17 04:57:53;;;;;;;28.27;11.75;;;;;;;;;;5147823;27;20081;-60
2021/12/17 05:00:22;;;;;;;29.33;11.55;;;;;;;;;;5129605;27;20047;-60
2021/12/17 05:02:52;;;;;;;27.45;11.23;;;;;;;;;;5147943;27;20047;-61
2021/12/17 05:05:19;;;;;;;28.00;11.32;;;;;;;;;;5147370;27;20046;-60
2021/12/17 05:07:56;;;;;;;27.63;10.48;;;;;;;;;;5147700;27;20042;-60
2021/12/17 05:18:27;;;;;;;26.90;12.48;;;;;;;;;;5147081;27;20043;-60
2021/12/17 05:21:00;;;;;;;24.02;11.95;;;;;;;;;;5146061;27;20053;-61
2021/12/17 05:23:33;;;;;;;30.45;12.57;;;;;;;;;;5139132;27;20047;-61
2021/12/17 05:26:00;;;;;;;29.13;12.70;;;;;;;;;;5139928;27;20039;-60
2021/12/17 05:28:26;;;;;;;28.42;11.60;;;;;;;;;;5142806;27;20039;-60
2021/12/17 05:30:55;;;;;;;32.15;12.63;;;;;;;;;;5136459;27;20058;-60
2021/12/17 05:33:21;;;;;;;30.77;13.20;;;;;;;;;;5126814;28;20050;-61
2021/12/17 05:35:48;;;;;;;33.03;13.30;;;;;;;;;;5126406;28;20535;-60
2021/12/17 05:38:14;;;;;;;37.95;14.32;;;;;;;;;;5127413;27;20092;-60
2021/12/17 05:40:41;;;;;;;31.95;13.18;;;;;;;;;;5145519;27;20457;-60
2021/12/17 05:43:08;;;;;;;30.27;12.67;;;;;;;;;;5147156;27;20127;-61
2021/12/17 05:45:36;;;;;;;39.95;13.77;;;;;;;;;;5147383;27;20513;-60
2021/12/17 05:48:04;;;;;;;36.63;13.90;;;;;;;;;;5147123;27;20044;-61
2021/12/17 05:50:31;;;;;;;39.20;13.80;;;;;;;;;;5146388;27;20048;-61
2021/12/17 05:52:57;;;;;;;38.40;13.95;;;;;;;;;;5146467;27;20051;-61
2021/12/17 05:55:23;;;;;;;33.53;14.25;;;;;;;;;;5146969;27;20060;-61
2021/12/17 05:57:49;;;;;;;38.58;13.63;;;;;;;;;;5147071;27;20079;-61
2021/12/17 06:00:16;;;;;;;38.53;14.15;;;;;;;;;;5147124;27;20043;-61
2021/12/17 06:02:42;;;;;;;39.63;14.00;;;;;;;;;;5146381;27;20031;-61
2021/12/17 06:05:08;;;;;;;34.38;13.57;;;;;;;;;;5146623;27;20103;-61
2021/12/17 06:07:34;;;;;;;37.67;14.20;;;;;;;;;;5146014;27;20039;-61
2021/12/17 06:10:04;;;;;;;35.00;13.00;;;;;;;;;;5146210;27;20134;-61
2021/12/17 06:12:30;;;;;;;37.50;13.82;;;;;;;;;;5147188;27;20407;-61
2021/12/17 06:14:56;;;;;;;42.63;13.95;;;;;;;;;;5146708;27;20075;-61
2021/12/17 06:17:22;;;;;;;40.95;13.93;;;;;;;;;;5146609;27;20073;-61
2021/12/17 06:19:48;;;;;;;43.33;14.55;;;;;;;;;;5145943;27;20039;-61
2021/12/17 06:22:15;;;;;;;45.95;14.60;;;;;;;;;;5127499;27;20054;-61
2021/12/17 06:24:44;;;;;;;34.88;13.18;;;;;;;;;;5146617;27;20063;-61
2021/12/17 06:27:14;;;;;;;33.95;12.48;;;;;;;;;;5146565;27;20054;-61
2021/12/17 06:29:41;;;;;;;41.25;12.60;;;;;;;;;;5145987;27;20089;-60
2021/12/17 06:32:07;;;;;;;34.60;12.93;;;;;;;;;;5146227;27;20039;-60
2021/12/17 06:34:34;;;;;;;37.05;13.48;;;;;;;;;;5146084;27;20043;-60
2021/12/17 06:37:00;;;;;;;36.85;13.25;;;;;;;;;;5145597;27;20058;-60
2021/12/17 06:39:26;;;;;;;36.47;14.38;;;;;;;;;;5145767;27;20091;-60
2021/12/17 06:41:52;;;;;;;43.17;13.73;;;;;;;;;;5145338;27;20051;-60
2021/12/17 06:44:22;;;;;;;40.72;15.85;;;;;;;;;;5146338;27;20382;-61
2021/12/17 06:49:44;;;;;;;38.42;14.07;;;;;;;;;;5145906;27;20112;-60
2021/12/17 06:55:08;;;;;;;39.70;14.07;;;;;;;;;;5146111;27;20111;-60
2021/12/17 07:10:47;;;;;;;42.67;13.65;;;;;;;;;;5145369;27;20051;-60
2021/12/17 07:21:52;;;;;;;37.38;13.85;;;;;;;;;;5144267;27;20054;-60
2021/12/17 07:35:38;;;;;;;37.15;14.30;;;;;;;;;;5100133;28;20047;-60
2021/12/17 07:40:49;;;;;;;37.92;14.65;;;;;;;;;;5124499;28;20410;-62
2021/12/17 07:43:25;;;;;;;35.65;13.10;;;;;;;;;;5133967;28;20043;-60
2021/12/17 07:45:51;;;;;;;31.95;13.90;;;;;;;;;;5145186;28;20047;-60
2021/12/17 07:48:17;;;;;;;37.50;14.15;;;;;;;;;;5145116;28;20043;-61
2021/12/17 07:50:43;;;;;;;38.97;14.13;;;;;;;;;;5125297;28;20039;-61
2021/12/17 07:53:10;;;;;;;34.13;14.27;;;;;;;;;;5144669;28;20078;-60
2021/12/17 07:55:41;;;;;;;31.48;14.65;;;;;;;;;;5145069;28;20043;-60
2021/12/17 07:58:07;;;;;;;31.33;13.90;;;;;;;;;;5126713;28;20047;-61
2021/12/17 08:00:33;;;;;;;35.22;13.90;;;;;;;;;;5145140;28;20039;-61
2021/12/17 08:02:59;;;;;;;36.40;13.98;;;;;;;;;;5144753;28;20031;-62
2021/12/17 08:05:25;;;;;;;30.80;13.15;;;;;;;;;;5144178;28;20436;-60
2021/12/17 08:07:52;;;;;;;39.17;13.07;;;;;;;;;;5126581;28;20123;-61
2021/12/17 08:10:18;;;;;;;31.33;13.00;;;;;;;;;;5145403;28;20031;-61
2021/12/17 08:12:44;;;;;;;34.15;12.57;;;;;;;;;;5143603;28;20130;-60
2021/12/17 08:15:12;;;;;;;38.95;14.90;;;;;;;;;;5144951;28;20114;-59
2021/12/17 08:26:21;;;;;;;43.03;14.00;;;;;;;;;;5080240;28;20080;-60
2021/12/17 08:28:53;;;;;;;;;;;;;;;;;;5077319;28;20059;-60
2021/12/17 08:31:20;;;;;;;35.15;12.95;;;;;;;;;;5083343;28;20323;-60
2021/12/17 08:33:46;;;;;;;40.25;15.13;;;;;;;;;;5083551;28;20044;-63
2021/12/17 08:36:14;;;;;;;39.25;13.73;;;;;;;;;;5082270;28;20044;-62
2021/12/17 08:38:40;;;;;;;38.15;15.18;;;;;;;;;;5079715;28;20115;-61
2021/12/17 08:41:08;;;;;;;36.40;15.10;;;;;;;;;;5083592;28;20104;-60
2021/12/17 08:43:35;;;;;;;45.15;15.68;;;;;;;;;;5081050;28;20044;-61
2021/12/17 08:46:01;;;;;;;30.08;14.30;;;;;;;;;;5083302;28;20052;-61
2021/12/17 08:48:27;;;;;;;37.10;15.35;;;;;;;;;;5067286;28;20057;-61
2021/12/17 08:50:53;;;;;;;38.53;14.65;;;;;;;;;;5083338;28;20068;-61
2021/12/17 08:53:19;;;;;;;35.60;14.45;;;;;;;;;;5083514;28;20594;-60
2021/12/17 08:55:46;;;;;;;33.47;14.43;;;;;;;;;;5138692;27;20168;-61
2021/12/17 08:58:14;;;;;;;32.05;13.80;;;;;;;;;;5147124;27;20490;-61
2021/12/17 09:00:40;;;;;;;28.55;13.02;;;;;;;;;;5130149;27;20047;-61
2021/12/17 09:03:09;;;;;;;34.83;13.35;;;;;;;;;;5146841;27;20073;-62
2021/12/17 09:05:37;;;;;;;28.30;13.07;;;;;;;;;;5147295;27;20035;-62
2021/12/17 09:08:03;;;;;;;;;;;;;;;;;;5148482;27;20433;-61
2021/12/17 09:10:29;;;;;;;26.50;12.82;;;;;;;;;;5147526;27;19994;-61
2021/12/17 09:12:56;;;;;;;27.08;12.23;;;;;;;;;;5147434;27;20068;-61
2021/12/17 09:15:22;;;;;;;22.08;11.45;;;;;;;;;;5147679;27;20043;-61
2021/12/17 09:17:48;;;;;;;35.38;13.23;;;;;;;;;;5138715;27;20057;-61
2021/12/17 09:20:14;;;;;;;32.65;12.50;;;;;;;;;;5141450;27;20100;-61
2021/12/17 09:22:41;;;;;;;26.95;13.93;;;;;;;;;;5147201;27;20051;-61
2021/12/17 09:25:08;;;;;;;22.90;11.30;;;;;;;;;;5147511;27;20545;-61
2021/12/17 09:27:34;;;;;;;26.25;11.98;;;;;;;;;;5146972;27;20049;-62
2021/12/17 09:30:00;;;;;;;28.65;12.18;;;;;;;;;;5147568;27;20047;-61
2021/12/17 09:32:26;;;;;;;24.13;11.43;;;;;;;;;;5147479;27;20035;-62
2021/12/17 09:34:52;;;;;;;29.42;12.00;;;;;;;;;;5146932;27;20114;-62
2021/12/17 09:37:18;;;;;;;26.00;11.75;;;;;;;;;;5146340;27;20047;-61
2021/12/17 09:39:45;;;;;;;26.30;12.15;;;;;;;;;;5147386;27;20036;-60
2021/12/17 09:42:11;;;;;;;26.60;11.77;;;;;;;;;;5146763;27;20047;-61
2021/12/17 09:44:37;;;;;;;33.95;12.13;;;;;;;;;;5147133;27;20523;-62
2021/12/17 09:47:04;;;;;;;25.38;11.05;;;;;;;;;;5146544;27;20507;-62
2021/12/17 09:49:31;;;;;;;24.85;10.82;;;;;;;;;;5146896;27;20049;-62
2021/12/17 09:51:59;;;;;;;23.77;10.88;;;;;;;;;;5126940;27;20046;-62
2021/12/17 09:54:25;;;;;;;27.08;11.60;;;;;;;;;;5126481;28;20047;-62
2021/12/17 09:56:52;;;;;;;22.05;11.35;;;;;;;;;;5140368;27;20467;-61
2021/12/17 09:59:18;;;;;;;32.50;10.57;;;;;;;;;;5146910;27;20054;-62
2021/12/17 10:01:45;;;;;;;25.27;10.35;;;;;;;;;;5146781;27;20050;-61
2021/12/17 10:04:11;;;;;;;29.90;11.05;;;;;;;;;;5146474;27;20043;-61
2021/12/17 10:06:37;;;;;;;23.15;10.65;;;;;;;;;;5146000;27;20047;-61
2021/12/17 10:09:04;;;;;;;23.50;11.00;;;;;;;;;;5146945;27;20058;-61
2021/12/17 10:11:30;;;;;;;22.83;9.70;;;;;;;;;;5146422;27;20047;-61
2021/12/17 10:13:57;;;;;;;21.52;9.88;;;;;;;;;;5146743;27;20067;-62
2021/12/17 10:16:23;;;;;;;22.88;10.27;;;;;;;;;;5127816;27;20043;-62
2021/12/17 10:18:50;;;;;;;28.83;10.82;;;;;;;;;;5146181;27;20046;-61
2021/12/17 10:21:24;;;;;;;22.67;9.10;;;;;;;;;;5144963;27;20051;-62
2021/12/17 10:23:53;;;;;;;26.80;10.40;;;;;;;;;;5146501;27;20043;-61
2021/12/17 10:26:20;;;;;;;25.23;9.65;;;;;;;;;;5145684;27;20043;-62
2021/12/17 10:28:53;;;;;;;20.85;9.40;;;;;;;;;;5146333;27;20084;-62
2021/12/17 10:31:20;;;;;;;20.33;9.10;;;;;;;;;;5146027;27;20054;-61
2021/12/17 10:33:50;;;;;;;26.50;9.88;;;;;;;;;;5127362;27;20043;-61
2021/12/17 10:36:16;;;;;;;23.70;9.60;;;;;;;;;;5145839;27;20086;-61
2021/12/17 10:38:46;;;;;;;19.73;8.82;;;;;;;;;;5145813;27;20099;-62
2021/12/17 10:41:15;;;;;;;23.63;9.82;;;;;;;;;;5127248;27;20138;-61
2021/12/17 10:43:48;;;;;;;15.93;7.68;;;;;;;;;;5146141;27;20047;-61
2021/12/17 10:46:31;;;;;;;23.27;9.32;;;;;;;;;;5145782;27;20051;-62
2021/12/17 10:49:13;;;;;;;17.80;9.05;;;;;;;;;;5145349;27;20094;-62
2021/12/17 10:54:15;;;;;;;14.17;8.03;;;;;;;;;;5146045;27;20070;-61
2021/12/17 10:57:07;;;;;;;15.90;7.72;;;;;;;;;;5145396;27;20051;-63
2021/12/17 10:59:35;;;;;;;13.05;7.47;;;;;;;;;;5140991;27;20043;-62
2021/12/17 11:02:06;;;;;;;15.02;7.60;;;;;;;;;;5145581;27;20054;-62
2021/12/17 11:04:33;;;;;;;15.45;7.60;;;;;;;;;;5145111;27;20043;-62
2021/12/17 11:07:03;;;;;;;18.25;7.63;;;;;;;;;;5145221;27;20044;-62
2021/12/17 11:09:39;;;;;;;13.10;6.47;;;;;;;;;;5145739;27;20043;-62
2021/12/17 11:12:17;;;;;;;8.77;5.22;;;;;;;;;;5145385;27;20054;-62
2021/12/17 11:14:44;;;;;;;8.18;4.75;;;;;;;;;;5140731;27;20046;-61
2021/12/17 11:17:14;;;;;;;13.15;5.43;;;;;;;;;;5124984;28;20044;-62
2021/12/17 11:19:41;;;;;;;7.80;5.40;;;;;;;;;;5122755;28;20123;-62
2021/12/17 11:22:07;;;;;;;9.77;6.38;;;;;;;;;;5144472;27;20051;-63
2021/12/17 11:24:34;;;;;;;14.00;5.57;;;;;;;;;;5145270;27;20043;-62
2021/12/17 11:27:01;;;;;;;7.90;4.88;;;;;;;;;;5145191;27;20177;-61
2021/12/17 11:29:28;;;;;;;7.25;4.90;;;;;;;;;;5145700;27;20118;-61
2021/12/17 11:31:54;;;;;;;10.88;5.30;;;;;;;;;;5145806;27;20126;-62
2021/12/17 11:34:21;;;;;;;12.00;5.78;;;;;;;;;;5138287;28;20130;-62
2021/12/17 11:36:47;;;;;;;8.43;4.63;;;;;;;;;;5136997;28;20054;-62
2021/12/17 11:39:18;;;;;;;9.02;4.57;;;;;;;;;;5125088;28;20039;-61
2021/12/17 11:41:56;;;;;;;7.25;4.85;;;;;;;;;;5144113;28;20061;-62
2021/12/17 11:44:28;;;;;;;9.98;5.05;;;;;;;;;;5144422;28;20493;-62
2021/12/17 11:47:01;;;;;;;9.00;5.18;;;;;;;;;;5144946;28;20164;-62
2021/12/17 11:49:33;;;;;;;10.15;5.60;;;;;;;;;;5143479;28;20043;-62
2021/12/17 11:52:00;;;;;;;7.90;5.25;;;;;;;;;;5143850;28;20054;-62
2021/12/17 11:54:34;;;;;;;8.13;5.45;;;;;;;;;;5144522;28;20118;-63
2021/12/17 11:57:18;;;;;;;13.52;5.65;;;;;;;;;;5144403;28;20279;-62
2021/12/17 11:59:45;;;;;;;12.55;6.30;;;;;;;;;;5143153;28;20080;-63
2021/12/17 12:02:14;;;;;;;12.88;6.25;;;;;;;;;;5144066;28;20089;-62
2021/12/17 12:04:44;;;;;;;13.30;6.20;;;;;;;;;;5138278;27;20051;-61
2021/12/17 12:07:21;;;;;;;9.50;6.10;;;;;;;;;;5134074;27;20067;-62
2021/12/17 12:09:57;;;;;;;13.32;6.28;;;;;;;;;;5110377;28;20449;-61
2021/12/17 12:12:27;;;;;;;9.85;5.90;;;;;;;;;;5128400;28;20054;-62
2021/12/17 12:14:54;;;;;;;10.57;6.53;;;;;;;;;;5147191;27;20047;-61
2021/12/17 12:17:52;;;;;;;11.25;6.43;;;;;;;;;;5148856;27;20054;-62
2021/12/17 12:20:36;;;;;;;10.10;6.78;;;;;;;;;;5127597;28;20107;-61
2021/12/17 12:23:21;;;;;;;10.48;6.55;;;;;;;;;;5129852;27;20126;-62
2021/12/17 12:26:16;;;;;;;11.63;6.40;;;;;;;;;;5136326;27;20039;-63
2021/12/17 12:28:45;;;;;;;11.43;6.72;;;;;;;;;;5140182;27;20486;-62
2021/12/17 12:31:22;;;;;;;10.13;6.90;;;;;;;;;;5147557;27;20039;-62
2021/12/17 12:34:06;;;;;;;10.85;6.25;;;;;;;;;;5132646;27;20499;-62
2021/12/17 12:36:44;;;;;;;12.20;5.63;;;;;;;;;;5127857;28;20050;-63
2021/12/17 12:39:19;;;;;;;10.93;5.57;;;;;;;;;;5144657;27;20047;-62
2021/12/17 12:42:05;;;;;;;8.15;5.80;;;;;;;;;;5146348;27;20091;-62
2021/12/17 12:44:40;;;;;;;7.60;5.43;;;;;;;;;;5146976;27;20058;-61
2021/12/17 12:47:07;;;;;;;10.07;5.90;;;;;;;;;;5147695;27;20039;-62
2021/12/17 12:49:44;;;;;;;12.65;6.88;;;;;;;;;;5148139;27;20043;-63
2021/12/17 12:52:30;;;;;;;9.20;6.38;;;;;;;;;;5147343;27;20047;-62
2021/12/17 12:55:00;;;;;;;7.88;6.40;;;;;;;;;;5128959;27;20049;-61
2021/12/17 12:57:27;;;;;;;9.23;6.25;;;;;;;;;;5147384;27;20043;-62
2021/12/17 12:59:55;;;;;;;11.18;6.95;;;;;;;;;;5148815;27;20114;-62
2021/12/17 13:02:25;;;;;;;10.13;6.13;;;;;;;;;;5147415;27;20151;-63
2021/12/17 13:04:52;;;;;;;10.43;6.82;;;;;;;;;;5147872;27;20043;-62
2021/12/17 13:07:30;;;;;;;16.70;7.80;;;;;;;;;;5147074;27;20043;-62
2021/12/17 13:09:56;;;;;;;13.13;7.07;;;;;;;;;;5147670;27;20107;-62
2021/12/17 13:12:25;;;;;;;10.10;6.88;;;;;;;;;;5140125;27;20058;-62
2021/12/17 13:14:55;;;;;;;11.35;7.25;;;;;;;;;;5146621;27;20035;-62
2021/12/17 13:20:43;;;;;;;9.80;6.65;;;;;;;;;;5135732;27;20063;-61
2021/12/17 13:23:15;;;;;;;8.95;6.07;;;;;;;;;;5145395;27;20498;-62
2021/12/17 13:25:41;;;;;;;7.82;6.00;;;;;;;;;;5145235;27;20063;-62
2021/12/17 13:28:07;;;;;;;8.25;6.40;;;;;;;;;;5140125;27;20517;-62
2021/12/17 13:30:33;;;;;;;7.13;5.38;;;;;;;;;;5145614;27;20054;-62
2021/12/17 13:33:00;;;;;;;7.57;6.07;;;;;;;;;;5145859;27;20042;-61
2021/12/17 13:35:27;;;;;;;9.00;6.13;;;;;;;;;;5140417;27;20035;-62
2021/12/17 13:37:59;;;;;;;7.53;6.40;;;;;;;;;;5142736;27;20102;-63
2021/12/17 13:40:27;;;;;;;9.45;6.07;;;;;;;;;;5146724;27;20426;-62
2021/12/17 13:42:55;;;;;;;8.10;5.85;;;;;;;;;;5145509;27;20126;-61
2021/12/17 13:45:21;;;;;;;7.15;5.82;;;;;;;;;;5141897;27;20062;-61
2021/12/17 13:47:48;;;;;;;10.85;6.85;;;;;;;;;;5146916;27;20068;-62
2021/12/17 13:50:18;;;;;;;8.50;6.28;;;;;;;;;;5140520;27;20910;-62
2021/12/17 13:52:55;;;;;;;10.02;6.72;;;;;;;;;;5145285;27;20058;-62
2021/12/17 13:55:27;;;;;;;11.57;6.85;;;;;;;;;;5142601;27;20099;-62
2021/12/17 13:57:53;;;;;;;9.63;6.63;;;;;;;;;;5146647;27;20047;-61
2021/12/17 14:00:24;;;;;;;8.57;6.25;;;;;;;;;;5144248;27;20122;-62
2021/12/17 14:02:53;;;;;;;12.18;5.97;;;;;;;;;;5145503;27;20042;-62
2021/12/17 14:05:26;;;;;;;10.88;5.70;;;;;;;;;;5143801;27;20050;-61
2021/12/17 14:07:53;;;;;;;8.23;5.82;;;;;;;;;;5145902;27;20039;-61
2021/12/17 14:10:21;;;;;;;6.53;5.43;;;;;;;;;;5139108;27;20039;-62
2021/12/17 14:12:48;;;;;;;7.18;5.72;;;;;;;;;;5140629;27;20057;-62
2021/12/17 14:15:19;;;;;;;8.45;5.90;;;;;;;;;;5145895;27;20086;-62
2021/12/17 14:17:46;;;;;;;8.77;6.15;;;;;;;;;;5142107;27;20107;-61
2021/12/17 14:20:17;;;;;;;8.55;6.80;;;;;;;;;;5139333;27;20071;-62
2021/12/17 14:22:44;;;;;;;8.93;6.53;;;;;;;;;;5145811;27;20067;-62
2021/12/17 14:25:44;;;;;;;14.15;6.40;;;;;;;;;;5143014;27;20054;-61
2021/12/17 14:28:14;;;;;;;11.63;6.88;;;;;;;;;;5071975;28;20076;-62
2021/12/17 14:30:42;;;;;;;10.40;6.20;;;;;;;;;;5075882;28;20048;-62
2021/12/17 14:33:13;;;;;;;10.50;5.93;;;;;;;;;;5082427;28;20055;-62
2021/12/17 14:35:41;;;;;;;7.60;6.38;;;;;;;;;;5078997;28;20033;-61
2021/12/17 14:38:08;;;;;;;10.38;6.95;;;;;;;;;;5077417;28;20112;-62
2021/12/17 14:40:43;;;;;;;11.10;7.63;;;;;;;;;;5082534;28;20057;-62
2021/12/17 14:43:20;;;;;;;11.80;6.75;;;;;;;;;;5082224;28;20056;-61
2021/12/17 14:46:10;;;;;;;9.63;6.57;;;;;;;;;;5082386;28;20083;-63
2021/12/17 14:48:56;;;;;;;7.88;6.55;;;;;;;;;;5065767;28;20053;-60
2021/12/17 15:04:47;;;;;;;17.67;8.32;;;;;;;;;;5120991;28;20047;-62
2021/12/17 15:07:13;;;;;;;12.75;8.30;;;;;;;;;;5132563;27;20098;-61
2021/12/17 15:09:43;;;;;;;14.75;8.05;;;;;;;;;;5141590;27;20055;-62
2021/12/17 15:12:35;;;;;;;9.82;7.20;;;;;;;;;;5126848;27;20375;-62
2021/12/17 15:14:59;;;;;;;12.50;6.95;;;;;;;;;;5137707;27;20035;-62
2021/12/17 15:17:25;;;;;;;10.18;7.38;;;;;;;;;;5140067;27;20062;-61
2021/12/17 15:19:51;;;;;;;10.73;7.53;;;;;;;;;;5144360;27;20039;-61
2021/12/17 15:22:17;;;;;;;10.00;7.25;;;;;;;;;;5143526;27;20043;-62
2021/12/17 15:24:44;;;;;;;10.63;7.65;;;;;;;;;;5144783;27;20042;-61
2021/12/17 15:27:12;;;;;;;10.95;7.97;;;;;;;;;;5143703;27;20039;-61
2021/12/17 15:29:38;;;;;;;13.48;9.40;;;;;;;;;;5143232;27;20054;-62
2021/12/17 15:32:05;;;;;;;15.73;9.30;;;;;;;;;;5112314;28;20044;-61
2021/12/17 15:34:31;;;;;;;18.40;10.18;;;;;;;;;;5143519;27;20106;-62
2021/12/17 15:36:58;;;;;;;20.52;10.68;;;;;;;;;;5143820;28;20053;-61
2021/12/17 15:39:26;;;;;;;20.25;10.05;;;;;;;;;;5141130;27;20068;-62
2021/12/17 15:41:52;;;;;;;22.90;12.13;;;;;;;;;;5151400;27;20039;-62
2021/12/17 15:44:18;;;;;;;18.52;9.50;;;;;;;;;;5151233;27;20055;-62
2021/12/17 15:46:45;;;;;;;21.65;11.10;;;;;;;;;;5151317;27;20047;-61
2021/12/17 15:49:11;;;;;;;25.85;11.60;;;;;;;;;;5143168;27;20062;-63
2021/12/17 15:51:37;;;;;;;25.70;11.77;;;;;;;;;;5143530;27;20085;-61
2021/12/17 15:54:04;;;;;;;29.55;12.07;;;;;;;;;;5142022;27;20289;-62
2021/12/17 15:56:31;;;;;;;28.33;11.38;;;;;;;;;;5146878;27;21058;-61
2021/12/17 15:58:58;;;;;;;42.55;13.57;;;;;;;;;;5142525;27;20414;-62
2021/12/17 16:01:24;;;;;;;37.47;13.68;;;;;;;;;;5147334;27;20070;-62
2021/12/17 16:03:51;;;;;;;32.17;13.75;;;;;;;;;;5124827;27;20050;-62
2021/12/17 16:06:17;;;;;;;32.03;12.25;;;;;;;;;;5147449;27;20099;-61
2021/12/17 16:08:47;;;;;;;29.65;12.50;;;;;;;;;;5145185;27;20031;-61
2021/12/17 16:11:35;;;;;;;33.05;12.90;;;;;;;;;;5144628;27;20059;-62
2021/12/17 16:22:05;;;;;;;30.92;11.40;;;;;;;;;;5150498;27;20057;-61
2021/12/17 16:24:32;;;;;;;32.13;12.10;;;;;;;;;;5148369;27;20112;-61
2021/12/17 16:26:58;;;;;;;28.95;9.40;;;;;;;;;;5138938;27;20060;-62
2021/12/17 16:29:24;;;;;;;26.67;10.18;;;;;;;;;;5144174;27;20069;-61
2021/12/17 16:31:50;;;;;;;23.45;9.05;;;;;;;;;;5146942;27;20318;-62
2021/12/17 16:34:17;;;;;;;28.33;9.23;;;;;;;;;;5149387;27;20100;-62
2021/12/17 16:36:43;;;;;;;25.20;8.52;;;;;;;;;;5150718;27;20091;-61
2021/12/17 16:39:14;;;;;;;19.80;6.97;;;;;;;;;;5130929;27;20054;-61
2021/12/17 16:41:40;;;;;;;20.55;8.65;;;;;;;;;;5149726;27;20039;-61
2021/12/17 16:44:10;;;;;;;18.98;7.70;;;;;;;;;;5151386;27;20058;-61
2021/12/17 16:49:05;;;;;;;20.83;7.95;;;;;;;;;;5137460;27;20043;-61
2021/12/17 16:51:31;;;;;;;21.55;7.97;;;;;;;;;;5146546;27;20296;-62
2021/12/17 16:53:57;;;;;;;20.92;5.93;;;;;;;;;;5147939;27;20039;-61
2021/12/17 16:56:24;;;;;;;20.30;6.60;;;;;;;;;;5142264;27;20047;-61
2021/12/17 16:58:50;;;;;;;12.02;5.10;;;;;;;;;;5142883;27;20079;-61
2021/12/17 17:01:17;;;;;;;11.35;5.10;;;;;;;;;;5142609;27;20121;-62
2021/12/17 17:03:43;;;;;;;10.68;5.05;;;;;;;;;;5142139;27;20169;-61
2021/12/17 17:06:10;;;;;;;16.33;5.32;;;;;;;;;;5141645;27;20046;-61
2021/12/17 17:08:36;;;;;;;13.23;4.75;;;;;;;;;;5144521;27;20406;-61
2021/12/17 17:11:04;;;;;;;11.95;4.95;;;;;;;;;;5139899;27;20042;-61
2021/12/17 17:13:34;;;;;;;6.28;3.70;;;;;;;;;;5145509;27;20062;-62
2021/12/17 17:16:04;;;;;;;8.32;4.40;;;;;;;;;;5144503;27;20106;-61
2021/12/17 17:18:31;;;;;;;10.90;3.85;;;;;;;;;;5142655;27;20089;-62
2021/12/17 17:20:58;;;;;;;12.07;5.03;;;;;;;;;;5142878;27;20039;-62
2021/12/17 17:23:24;;;;;;;9.65;4.15;;;;;;;;;;5145891;27;20043;-62
2021/12/17 17:25:51;;;;;;;13.05;5.25;;;;;;;;;;5145606;27;20100;-61
2021/12/17 17:28:17;;;;;;;13.25;4.57;;;;;;;;;;5145287;27;20054;-62
2021/12/17 17:30:43;;;;;;;8.38;3.25;;;;;;;;;;5139958;27;20049;-62
2021/12/17 17:33:10;;;;;;;8.38;3.63;;;;;;;;;;5145556;27;20065;-62
2021/12/17 17:35:36;;;;;;;8.85;3.90;;;;;;;;;;5145009;27;20065;-62
2021/12/17 17:38:03;;;;;;;12.00;4.88;;;;;;;;;;5139165;27;20065;-62
2021/12/17 17:40:35;;;;;;;12.07;5.10;;;;;;;;;;5145179;27;20039;-61
2021/12/17 17:43:02;;;;;;;9.38;4.18;;;;;;;;;;5140172;27;20063;-61
2021/12/17 17:45:31;;;;;;;8.38;3.92;;;;;;;;;;5146508;27;20112;-61
2021/12/17 17:47:57;;;;;;;9.93;3.80;;;;;;;;;;5141885;27;20498;-61
2021/12/17 17:50:23;;;;;;;10.10;5.05;;;;;;;;;;5143827;27;20046;-61
2021/12/17 17:52:49;;;;;;;12.90;4.47;;;;;;;;;;5145891;27;20111;-62
2021/12/17 17:55:15;;;;;;;11.82;3.97;;;;;;;;;;5147123;27;20079;-61